MAPA DE AEROPUERTO

INFORMACIÓN METAR y TAF

METAR FOR MHTG
ADDS - METARS form results

(1602 UTC 07 May 2021)
Data provider http://aviationweather.gov/metar/data/
 
METAR text: MHTG 071600Z 36006KT 9000 FEW030 SCT090 25/16 Q1020 A3012 NOSIG
Conditions at: MHTG (TEGUCIGALPA/TON , HN) observed 1600 UTC 07 May 2021
Temperature: 25.0°C (77°F)
Dewpoint: 16.0°C (61°F) [RH = 57%]
Pressure (altimeter): 30.12 inches Hg (1020.0 mb)
Winds: from the N (360 degrees) at 7 MPH (6 knots; 3.1 m/s)
Visibility: 6 miles ( 9 km)
Ceiling: at least 12,000 feet AGL
Clouds: few clouds at 3000 feet AGL
scattered clouds at 9000 feet AGL
Weather: no significant weather observed at this time

METAR text: MHTG 071535Z 36008KT 9000 FEW030 SCT090 25/16 Q1020 A3012 NOSIG
Conditions at: MHTG (TEGUCIGALPA/TON , HN) observed 1535 UTC 07 May 2021
Temperature: 25.0°C (77°F)
Dewpoint: 16.0°C (61°F) [RH = 57%]
Pressure (altimeter): 30.12 inches Hg (1020.0 mb)
Winds: from the N (360 degrees) at 9 MPH (8 knots; 4.1 m/s)
Visibility: 6 miles ( 9 km)
Ceiling: at least 12,000 feet AGL
Clouds: few clouds at 3000 feet AGL
scattered clouds at 9000 feet AGL
Weather: no significant weather observed at this time

Forecast for: MHTG (TEGUCIGALPA/TON , HN)
Text: TAF MHTG 071040Z 0712/0812 VRB02KT 6000 SCT028 SCT090 TX30/0720Z TN18/0812Z
Forecast period: 1200 to 1500 UTC 07 May 2021
Forecast type: FROM: standard forecast or significant change
Winds: variable direction winds at 2 MPH (2 knots; 1.0 m/s)
Visibility: 4 miles (6 km)
Ceiling: at least 12,000 feet AGL
Clouds: scattered clouds at 2800 feet AGL
scattered clouds at 9000 feet AGL
Weather: no significant weather forecast for this period
Text: BECMG 0715/0717 04010KT 9999 SCT032TCU
Forecast period: 1500 UTC 07 May 2021 to 0200 UTC 08 May 2021
Forecast type: BECOMING: Conditions expected to become as follows by 1700 UTC 07 May 2021
Winds: from the NE (40 degrees) at 12 MPH (10 knots; 5.1 m/s)
Visibility: 6 or more miles (10+ km)
Ceiling: at least 12,000 feet AGL
Clouds: scattered clouds at 3200 feet AGL
Weather: no significant weather forecast for this period
Text: BECMG 0802/0804 VRB02KT 5000 FU SCT028 SCT090
Forecast period: 0200 to 1200 UTC 08 May 2021
Forecast type: BECOMING: Conditions expected to become as follows by 0400 UTC 08 May 2021
Winds: variable direction winds at 2 MPH (2 knots; 1.0 m/s)
Visibility: 3 miles (5 km)
Ceiling: at least 12,000 feet AGL
Clouds: scattered clouds at 2800 feet AGL
scattered clouds at 9000 feet AGL
Weather: FU  (smoke)